Time;durP1;ratioP1;P1;durP2;ratioP2;P2;SDS_P1;SDS_P2;PMS_P1;PMS_P2;Temp;Humidity;BMP_temperature;BMP_pressure;BME280_temperature;BME280_humidity;BME280_pressure;Samples;Min_cycle;Max_cycle;Signal;HPM_P1;HPM_P2
2023/05/21 00:01:17;;;;;;;15.03;13.63;;;14.80;99.90;;;;;;5046752;28;20194;-55
2023/05/21 00:03:44;;;;;;;16.70;14.93;;;14.70;99.90;;;;;;5049337;28;20578;-54
2023/05/21 00:06:14;;;;;;;16.30;14.70;;;14.70;99.90;;;;;;5037492;28;20212;-55
2023/05/21 00:08:41;;;;;;;15.73;14.27;;;14.70;99.90;;;;;;5036996;28;20288;-55
2023/05/21 00:11:09;;;;;;;15.07;13.47;;;14.70;99.90;;;;;;5033073;28;20222;-55
2023/05/21 00:13:37;;;;;;;13.77;12.47;;;14.70;99.90;;;;;;5033431;28;20206;-54
2023/05/21 00:16:04;;;;;;;17.17;15.40;;;14.60;99.90;;;;;;5035095;28;20660;-55
2023/05/21 00:18:33;;;;;;;14.37;13.00;;;14.50;99.90;;;;;;5036646;28;20226;-55
2023/05/21 00:21:00;;;;;;;17.83;15.73;;;14.50;99.90;;;;;;5041409;28;20245;-55
2023/05/21 00:23:27;;;;;;;18.43;16.83;;;14.40;99.90;;;;;;5033683;28;20207;-55
2023/05/21 00:25:55;;;;;;;18.13;16.33;;;14.40;99.90;;;;;;5033220;28;20244;-55
2023/05/21 00:28:23;;;;;;;19.27;17.40;;;14.40;99.90;;;;;;5031022;28;20321;-55
2023/05/21 00:30:50;;;;;;;18.00;15.83;;;14.40;99.90;;;;;;5040674;28;20703;-55
2023/05/21 00:33:17;;;;;;;17.70;15.93;;;14.40;99.90;;;;;;5033458;28;20198;-54
2023/05/21 00:35:45;;;;;;;18.50;16.60;;;14.40;99.90;;;;;;5041200;28;20195;-56
2023/05/21 00:38:13;;;;;;;17.77;16.07;;;14.40;99.90;;;;;;5052741;28;20236;-55
2023/05/21 00:40:40;;;;;;;17.37;15.57;;;14.40;99.90;;;;;;5041253;28;20212;-54
2023/05/21 00:43:09;;;;;;;17.13;14.53;;;14.40;99.90;;;;;;5039484;28;20209;-54
2023/05/21 00:45:38;;;;;;;17.37;15.67;;;14.40;99.90;;;;;;5040953;28;20199;-54
2023/05/21 00:48:06;;;;;;;16.20;14.70;;;14.40;99.90;;;;;;5032508;28;20300;-54
2023/05/21 00:50:33;;;;;;;15.67;13.47;;;14.40;99.90;;;;;;5032589;28;20730;-54
2023/05/21 00:53:00;;;;;;;16.37;14.17;;;14.40;99.90;;;;;;5032537;28;20256;-55
2023/05/21 00:55:27;;;;;;;15.10;13.70;;;14.30;99.90;;;;;;5039325;28;20206;-54
2023/05/21 00:57:54;;;;;;;14.17;12.87;;;14.30;99.90;;;;;;5039736;28;20217;-55
2023/05/21 01:00:23;;;;;;;14.33;13.00;;;14.40;99.90;;;;;;5045971;28;20194;-55
2023/05/21 01:02:51;;;;;;;13.30;12.00;;;14.40;99.90;;;;;;5051930;28;20675;-54
2023/05/21 01:05:20;;;;;;;15.10;13.60;;;14.40;99.90;;;;;;5050691;28;20209;-55
2023/05/21 01:07:47;;;;;;;15.77;14.27;;;14.30;99.90;;;;;;5040195;28;20793;-55
2023/05/21 01:10:14;;;;;;;16.77;15.23;;;14.30;99.90;;;;;;5045835;28;20273;-55
2023/05/21 01:12:44;;;;;;;16.77;15.17;;;14.30;99.90;;;;;;5039278;28;20210;-55
2023/05/21 01:15:11;;;;;;;16.80;15.03;;;14.30;99.90;;;;;;5032338;28;20199;-55
2023/05/21 01:17:40;;;;;;;15.50;13.90;;;14.30;99.90;;;;;;5031936;28;20218;-54
2023/05/21 01:20:10;;;;;;;14.50;13.10;;;14.20;99.90;;;;;;5040185;28;20194;-55
2023/05/21 01:22:42;;;;;;;15.00;13.53;;;14.30;99.90;;;;;;5046714;28;20244;-56
2023/05/21 01:25:11;;;;;;;17.33;15.53;;;14.20;99.90;;;;;;5048561;28;20205;-54
2023/05/21 01:27:38;;;;;;;18.07;15.77;;;14.20;99.90;;;;;;5039001;28;20234;-55
2023/05/21 01:30:06;;;;;;;14.97;13.47;;;14.20;99.90;;;;;;5051284;28;20254;-55
2023/05/21 01:32:38;;;;;;;16.10;14.50;;;14.10;99.90;;;;;;5039668;28;20264;-55
2023/05/21 01:35:09;;;;;;;13.97;12.67;;;14.10;99.90;;;;;;5051541;28;20198;-54
2023/05/21 01:37:43;;;;;;;13.77;12.47;;;14.00;99.90;;;;;;5051724;28;20236;-55
2023/05/21 01:40:17;;;;;;;15.10;13.53;;;14.00;99.90;;;;;;5051513;28;20194;-54
2023/05/21 01:42:46;;;;;;;11.53;10.50;;;14.00;99.90;;;;;;5039924;28;20568;-55
2023/05/21 01:45:15;;;;;;;8.83;8.13;;;13.90;99.90;;;;;;5030819;28;20218;-55
2023/05/21 01:47:44;;;;;;;8.83;7.93;;;13.90;99.90;;;;;;5047840;28;20221;-55
2023/05/21 01:50:12;;;;;;;9.03;8.33;;;13.80;99.90;;;;;;5037955;28;20226;-55
2023/05/21 01:52:39;;;;;;;8.60;7.80;;;13.80;99.90;;;;;;5047018;28;20263;-55
2023/05/21 01:55:06;;;;;;;7.20;6.63;;;13.70;99.90;;;;;;5045697;28;20257;-55
2023/05/21 01:57:35;;;;;;;7.90;7.20;;;13.80;99.90;;;;;;5037357;28;20218;-54
2023/05/21 02:00:03;;;;;;;9.63;8.50;;;13.70;99.90;;;;;;5031446;28;20259;-54
2023/05/21 02:02:30;;;;;;;10.23;8.57;;;13.70;99.90;;;;;;5042636;28;20313;-55
2023/05/21 02:04:57;;;;;;;9.63;7.93;;;13.70;99.90;;;;;;5051058;28;20339;-55
2023/05/21 02:07:24;;;;;;;8.13;7.43;;;13.60;99.90;;;;;;5049291;28;20248;-54
2023/05/21 02:09:51;;;;;;;7.97;7.37;;;13.60;99.90;;;;;;5038131;28;20233;-55
2023/05/21 02:12:18;;;;;;;8.63;7.67;;;13.60;99.90;;;;;;5045972;28;20198;-55
2023/05/21 02:14:49;;;;;;;7.67;7.07;;;13.60;99.90;;;;;;5042563;28;20197;-54
2023/05/21 02:17:16;;;;;;;7.53;7.03;;;13.60;99.90;;;;;;5050854;28;20744;-55
2023/05/21 02:19:43;;;;;;;8.10;7.43;;;13.60;99.90;;;;;;5050793;28;20212;-55
2023/05/21 02:22:10;;;;;;;8.77;7.63;;;13.50;99.90;;;;;;5039186;28;20191;-54
2023/05/21 02:24:37;;;;;;;6.77;6.23;;;13.50;99.90;;;;;;5046798;28;20247;-55
2023/05/21 02:27:05;;;;;;;12.60;8.60;;;13.50;99.90;;;;;;5039020;28;20559;-54
2023/05/21 02:29:32;;;;;;;8.60;7.90;;;13.50;99.90;;;;;;5045576;28;20723;-55
2023/05/21 02:32:02;;;;;;;8.10;7.03;;;13.60;99.90;;;;;;5050417;28;20267;-55
2023/05/21 02:34:31;;;;;;;8.77;8.07;;;13.60;99.90;;;;;;5040854;28;20274;-55
2023/05/21 02:36:58;;;;;;;9.23;8.43;;;13.50;99.90;;;;;;5042450;28;20197;-55
2023/05/21 02:39:25;;;;;;;7.93;7.23;;;13.50;99.90;;;;;;5046164;28;20245;-55
2023/05/21 02:41:52;;;;;;;6.70;6.20;;;13.40;99.90;;;;;;5042046;28;20620;-54
2023/05/21 02:44:19;;;;;;;8.13;7.33;;;13.40;99.90;;;;;;5050169;28;20248;-55
2023/05/21 02:46:46;;;;;;;8.43;7.67;;;13.30;99.90;;;;;;5041625;28;20733;-55
2023/05/21 02:49:15;;;;;;;7.90;7.07;;;13.30;99.90;;;;;;5043210;28;20218;-54
2023/05/21 02:51:41;;;;;;;7.93;7.23;;;13.30;99.90;;;;;;5050716;28;20236;-55
2023/05/21 02:54:08;;;;;;;8.07;7.37;;;13.30;99.90;;;;;;5038285;28;20252;-54
2023/05/21 02:56:35;;;;;;;8.63;7.83;;;13.40;99.90;;;;;;5046284;28;20193;-55
2023/05/21 02:59:02;;;;;;;7.40;6.90;;;13.40;99.90;;;;;;5039927;28;20233;-54
2023/05/21 03:01:29;;;;;;;8.67;6.97;;;13.40;99.90;;;;;;5042118;28;20198;-55
2023/05/21 03:03:56;;;;;;;7.73;7.03;;;13.40;99.90;;;;;;5050528;28;20205;-55
2023/05/21 03:06:24;;;;;;;7.67;6.87;;;13.50;99.90;;;;;;5046994;28;20198;-55
2023/05/21 03:08:51;;;;;;;7.20;6.50;;;13.50;99.90;;;;;;5042352;28;20275;-54
2023/05/21 03:11:19;;;;;;;8.40;6.70;;;13.50;99.90;;;;;;5043320;28;20834;-55
2023/05/21 03:13:46;;;;;;;7.90;7.30;;;13.40;99.90;;;;;;5041806;28;20582;-54
2023/05/21 03:16:13;;;;;;;7.50;6.80;;;13.40;99.90;;;;;;5050579;28;20256;-54
2023/05/21 03:18:40;;;;;;;7.83;7.07;;;13.30;99.90;;;;;;5050267;28;20283;-54
2023/05/21 03:21:07;;;;;;;8.83;8.03;;;13.30;99.90;;;;;;5033983;28;20194;-55
2023/05/21 03:23:35;;;;;;;7.73;7.03;;;13.20;99.90;;;;;;5034951;28;20252;-55
2023/05/21 03:26:03;;;;;;;9.40;7.63;;;13.20;99.90;;;;;;5041309;28;20198;-54
2023/05/21 03:28:30;;;;;;;8.47;7.77;;;13.20;99.90;;;;;;5049943;28;20233;-54
2023/05/21 03:30:57;;;;;;;7.60;7.03;;;13.20;99.90;;;;;;5050389;28;20218;-54
2023/05/21 03:33:24;;;;;;;8.60;7.90;;;13.20;99.90;;;;;;5040326;28;20202;-54
2023/05/21 03:35:51;;;;;;;8.33;7.50;;;13.20;99.90;;;;;;5024157;28;20229;-54
2023/05/21 03:38:18;;;;;;;6.90;6.40;;;13.30;99.90;;;;;;5030731;28;20316;-55
2023/05/21 03:40:46;;;;;;;7.93;7.23;;;13.30;99.90;;;;;;5030057;28;20195;-54
2023/05/21 03:43:13;;;;;;;6.57;6.07;;;13.30;99.90;;;;;;5029527;28;20222;-54
2023/05/21 03:45:40;;;;;;;6.80;6.30;;;13.30;99.90;;;;;;5032498;28;20207;-54
2023/05/21 03:48:07;;;;;;;6.37;5.97;;;13.30;99.90;;;;;;5034290;28;20233;-54
2023/05/21 03:50:34;;;;;;;6.37;5.83;;;13.30;99.90;;;;;;5035534;28;20284;-55
2023/05/21 03:53:01;;;;;;;6.37;5.87;;;13.30;99.90;;;;;;5047769;28;20210;-54
2023/05/21 03:55:28;;;;;;;5.97;5.57;;;13.30;99.90;;;;;;5031686;28;20274;-54
2023/05/21 03:57:56;;;;;;;5.33;5.00;;;13.20;99.90;;;;;;5043235;28;20268;-55
2023/05/21 04:00:23;;;;;;;5.43;5.10;;;13.20;99.90;;;;;;5038186;28;20303;-55
2023/05/21 04:02:50;;;;;;;5.80;5.40;;;13.20;99.90;;;;;;5034373;28;20218;-56
2023/05/21 04:05:17;;;;;;;5.23;4.93;;;13.20;99.90;;;;;;5040220;28;20202;-55
2023/05/21 04:07:45;;;;;;;6.30;5.80;;;13.20;99.90;;;;;;5028694;28;20230;-54
2023/05/21 04:10:12;;;;;;;5.83;5.33;;;13.20;99.90;;;;;;5033115;28;20198;-55
2023/05/21 04:12:39;;;;;;;5.73;5.33;;;13.20;99.90;;;;;;5033155;28;20222;-55
2023/05/21 04:15:08;;;;;;;6.27;5.77;;;13.20;99.90;;;;;;5029706;28;20194;-54
2023/05/21 04:17:35;;;;;;;6.23;5.23;;;13.20;99.90;;;;;;5033182;28;20288;-54
2023/05/21 04:20:03;;;;;;;6.10;5.60;;;13.20;99.90;;;;;;5032899;28;20842;-55
2023/05/21 04:22:30;;;;;;;5.83;5.33;;;13.20;99.90;;;;;;5036517;28;20194;-54
2023/05/21 04:24:58;;;;;;;8.37;5.43;;;13.20;99.90;;;;;;5040209;28;20201;-55
2023/05/21 04:27:25;;;;;;;5.07;4.57;;;13.30;99.90;;;;;;5039864;28;20205;-55
2023/05/21 04:29:53;;;;;;;5.83;5.33;;;13.30;99.90;;;;;;5035724;28;20250;-55
2023/05/21 04:32:21;;;;;;;4.90;4.60;;;13.30;99.90;;;;;;5042347;28;20633;-55
2023/05/21 04:34:48;;;;;;;5.07;4.70;;;13.30;99.90;;;;;;5044368;28;20690;-54
2023/05/21 04:37:16;;;;;;;5.60;5.10;;;13.30;99.90;;;;;;5051940;28;20198;-55
2023/05/21 04:39:43;;;;;;;6.47;5.23;;;13.30;99.90;;;;;;5044831;28;20207;-55
2023/05/21 04:42:10;;;;;;;5.63;5.23;;;13.40;99.90;;;;;;5034043;28;20244;-54
2023/05/21 04:44:39;;;;;;;6.00;5.33;;;13.40;99.90;;;;;;5048317;28;20252;-55
2023/05/21 04:47:06;;;;;;;5.63;5.13;;;13.40;99.90;;;;;;5052724;28;20210;-55
2023/05/21 04:49:34;;;;;;;5.53;5.13;;;13.50;99.90;;;;;;5046010;28;20234;-54
2023/05/21 04:52:05;;;;;;;5.07;4.77;;;13.60;99.90;;;;;;5041682;28;20280;-55
2023/05/21 04:54:32;;;;;;;5.47;5.07;;;13.70;99.90;;;;;;5031742;28;20260;-55
2023/05/21 04:57:01;;;;;;;5.30;4.90;;;13.80;99.90;;;;;;5042564;28;20572;-54
2023/05/21 04:59:28;;;;;;;4.47;4.27;;;13.90;99.90;;;;;;5052226;28;20222;-55
2023/05/21 05:04:26;;;;;;;4.73;4.43;;;14.10;99.90;;;;;;5064080;22;20238;-58
2023/05/21 05:06:54;;;;;;;5.40;4.87;;;14.10;99.90;;;;;;5033303;28;20203;-57
2023/05/21 05:09:23;;;;;;;4.77;4.53;;;14.10;99.90;;;;;;5039155;28;20286;-58
2023/05/21 05:11:50;;;;;;;5.03;4.53;;;14.10;99.90;;;;;;5039764;28;20260;-58
2023/05/21 05:14:17;;;;;;;7.13;5.17;;;14.10;99.90;;;;;;5031552;28;20273;-58
2023/05/21 05:16:46;;;;;;;4.73;4.33;;;14.20;99.90;;;;;;5034503;28;20210;-57
2023/05/21 05:19:13;;;;;;;5.00;4.60;;;14.30;99.90;;;;;;5033387;28;20666;-58
2023/05/21 05:21:40;;;;;;;6.30;5.80;;;14.40;99.90;;;;;;5052697;28;20201;-58
2023/05/21 05:24:09;;;;;;;6.33;5.73;;;14.50;99.90;;;;;;5052584;28;20302;-58
2023/05/21 05:26:35;;;;;;;5.43;5.00;;;14.60;99.90;;;;;;5052540;28;20275;-58
2023/05/21 05:29:02;;;;;;;5.90;5.50;;;14.70;99.90;;;;;;5037471;28;20206;-61
2023/05/21 05:31:29;;;;;;;6.40;5.93;;;14.90;99.90;;;;;;5032121;28;20788;-61
2023/05/21 05:33:57;;;;;;;9.17;6.20;;;15.00;99.90;;;;;;5042066;28;20278;-61
2023/05/21 05:36:24;;;;;;;5.57;5.27;;;15.10;99.90;;;;;;5037960;28;20728;-61
2023/05/21 05:38:51;;;;;;;5.57;5.17;;;15.20;99.90;;;;;;5034530;28;20224;-61
2023/05/21 05:41:19;;;;;;;5.53;5.03;;;15.30;99.90;;;;;;5039267;28;20191;-61
2023/05/21 05:43:46;;;;;;;5.73;5.40;;;15.60;99.90;;;;;;5039671;28;20631;-61
2023/05/21 05:46:13;;;;;;;5.53;5.13;;;15.90;99.90;;;;;;5043641;28;20608;-62
2023/05/21 05:48:40;;;;;;;6.07;5.57;;;16.20;99.90;;;;;;5052007;28;20197;-61
2023/05/21 05:51:07;;;;;;;5.87;5.37;;;16.30;99.90;;;;;;5051773;28;20223;-61
2023/05/21 05:53:34;;;;;;;5.83;5.40;;;16.40;99.90;;;;;;5040166;28;20222;-61
2023/05/21 05:56:01;;;;;;;6.33;5.70;;;16.50;99.90;;;;;;5032549;28;20202;-61
2023/05/21 05:58:31;;;;;;;6.80;6.27;;;16.70;99.90;;;;;;5034044;28;20220;-62
2023/05/21 06:00:58;;;;;;;5.97;5.57;;;16.90;99.90;;;;;;5041924;28;20198;-61
2023/05/21 06:03:25;;;;;;;6.23;5.73;;;17.00;99.90;;;;;;5041736;28;20297;-61
2023/05/21 06:05:52;;;;;;;5.93;5.53;;;17.20;99.90;;;;;;5037210;28;20656;-61
2023/05/21 06:08:19;;;;;;;5.87;5.47;;;17.20;99.90;;;;;;5051038;28;20652;-61
2023/05/21 06:10:46;;;;;;;5.87;5.40;;;17.40;99.90;;;;;;5037067;28;20206;-61
2023/05/21 06:13:13;;;;;;;5.63;5.07;;;17.50;99.90;;;;;;5042803;28;20221;-61
2023/05/21 06:15:41;;;;;;;5.10;4.77;;;17.80;99.90;;;;;;5051082;28;20624;-61
2023/05/21 06:18:08;;;;;;;6.13;4.60;;;17.80;99.90;;;;;;5050202;28;20296;-61
2023/05/21 06:20:35;;;;;;;4.20;4.00;;;17.90;99.90;;;;;;5031419;28;20264;-61
2023/05/21 06:23:03;;;;;;;6.23;5.37;;;18.10;99.90;;;;;;5030975;28;20642;-61
2023/05/21 06:25:30;;;;;;;6.30;5.90;;;18.40;99.90;;;;;;5038413;28;20614;-62
2023/05/21 06:27:57;;;;;;;4.97;4.50;;;19.10;99.90;;;;;;5049720;28;20204;-61
2023/05/21 06:30:24;;;;;;;5.40;5.10;;;19.90;99.90;;;;;;5051131;28;20197;-61
2023/05/21 06:32:53;;;;;;;5.80;4.77;;;20.40;99.90;;;;;;5050795;28;20251;-61
2023/05/21 06:35:20;;;;;;;3.80;3.60;;;21.10;99.90;;;;;;5048293;28;20214;-61
2023/05/21 06:37:47;;;;;;;4.43;4.03;;;21.80;99.90;;;;;;5029989;28;20660;-61
2023/05/21 06:40:14;;;;;;;3.83;3.63;;;22.60;99.90;;;;;;5042719;28;20656;-61
2023/05/21 06:42:41;;;;;;;6.77;4.70;;;23.20;99.90;;;;;;5050646;28;20632;-61
2023/05/21 06:45:09;;;;;;;4.30;4.10;;;23.80;99.90;;;;;;5051176;28;20286;-61
2023/05/21 06:47:36;;;;;;;3.40;3.30;;;24.40;99.90;;;;;;5044871;28;20206;-62
2023/05/21 06:50:05;;;;;;;2.97;2.77;;;25.10;99.90;;;;;;5031041;28;20260;-62
2023/05/21 06:52:32;;;;;;;3.40;3.10;;;24.90;99.90;;;;;;5038098;28;20230;-62
2023/05/21 06:54:59;;;;;;;3.03;2.63;;;25.10;99.90;;;;;;5036233;28;20636;-62
2023/05/21 06:57:26;;;;;;;2.20;2.20;;;24.70;99.90;;;;;;5042668;28;20256;-61
2023/05/21 06:59:53;;;;;;;2.60;2.50;;;24.60;99.90;;;;;;5050315;28;20202;-61
2023/05/21 07:02:20;;;;;;;2.93;2.80;;;24.30;99.90;;;;;;5030432;28;20615;-61
2023/05/21 07:04:47;;;;;;;3.17;2.87;;;23.80;99.90;;;;;;5029792;28;20621;-61
2023/05/21 07:07:15;;;;;;;2.80;2.53;;;23.70;99.90;;;;;;5042414;28;20599;-62
2023/05/21 07:09:42;;;;;;;4.33;2.90;;;23.70;99.90;;;;;;5044794;28;20210;-61
2023/05/21 07:12:09;;;;;;;3.37;3.07;;;23.90;99.90;;;;;;5030561;28;20288;-61
2023/05/21 07:14:36;;;;;;;3.00;2.90;;;23.80;99.90;;;;;;5030761;28;20206;-62
2023/05/21 07:17:03;;;;;;;3.27;2.97;;;23.40;99.90;;;;;;5034830;28;20244;-61
2023/05/21 07:19:31;;;;;;;2.97;2.77;;;23.50;99.90;;;;;;5028915;28;20206;-61
2023/05/21 07:22:00;;;;;;;2.70;2.60;;;23.30;99.90;;;;;;5031859;28;20194;-61
2023/05/21 07:24:29;;;;;;;3.20;3.10;;;23.20;99.90;;;;;;5031690;28;20289;-61
2023/05/21 07:26:56;;;;;;;3.23;3.13;;;23.10;99.90;;;;;;5037829;28;20217;-62
2023/05/21 07:29:23;;;;;;;2.53;2.43;;;22.90;99.90;;;;;;5049734;28;20256;-62
2023/05/21 07:31:50;;;;;;;3.73;3.53;;;23.00;99.90;;;;;;5032787;28;20218;-62
2023/05/21 07:34:17;;;;;;;4.67;3.67;;;22.90;99.90;;;;;;5031874;28;20226;-62
2023/05/21 07:36:44;;;;;;;3.07;2.97;;;22.70;99.90;;;;;;5034907;28;20821;-62
2023/05/21 07:39:11;;;;;;;3.03;2.93;;;22.60;99.90;;;;;;5046800;28;20206;-62
2023/05/21 07:41:39;;;;;;;3.50;3.30;;;22.70;99.90;;;;;;5038012;28;20199;-62
2023/05/21 07:44:06;;;;;;;4.03;2.83;;;22.60;99.90;;;;;;5040006;28;20275;-62
2023/05/21 07:46:33;;;;;;;3.47;3.27;;;22.70;99.90;;;;;;5038228;28;20206;-61
2023/05/21 07:49:00;;;;;;;3.43;3.33;;;22.90;99.90;;;;;;5034229;28;20807;-62
2023/05/21 07:51:27;;;;;;;2.97;2.87;;;23.00;99.90;;;;;;5040432;28;20248;-62
2023/05/21 07:53:55;;;;;;;3.90;3.60;;;23.40;99.90;;;;;;5034706;28;20276;-62
2023/05/21 07:56:22;;;;;;;3.97;3.87;;;23.80;99.90;;;;;;5038888;28;20202;-62
2023/05/21 07:58:50;;;;;;;2.77;2.67;;;23.80;99.90;;;;;;5037897;28;20595;-62
2023/05/21 08:01:17;;;;;;;3.43;3.17;;;23.90;99.90;;;;;;5032450;28;20548;-62
2023/05/21 08:03:44;;;;;;;4.20;3.33;;;24.10;99.90;;;;;;5031182;28;20276;-62
2023/05/21 08:06:11;;;;;;;5.80;5.40;;;23.90;99.90;;;;;;5044026;28;20252;-62
2023/05/21 08:08:37;;;;;;;9.37;8.50;;;24.10;99.90;;;;;;5044085;28;20255;-62
2023/05/21 08:11:04;;;;;;;6.00;5.70;;;23.70;99.90;;;;;;5036903;28;20202;-61
2023/05/21 08:13:31;;;;;;;4.30;4.10;;;23.80;99.90;;;;;;5033194;28;20253;-62
2023/05/21 08:16:00;;;;;;;4.50;4.30;;;23.40;99.90;;;;;;5031396;28;20199;-61
2023/05/21 08:18:27;;;;;;;5.57;5.07;;;23.20;99.90;;;;;;5040375;28;20212;-62
2023/05/21 08:20:54;;;;;;;5.53;5.23;;;22.90;99.90;;;;;;5034514;28;20199;-61
2023/05/21 08:23:21;;;;;;;5.80;5.50;;;22.20;99.90;;;;;;5051011;28;20308;-62
2023/05/21 08:25:48;;;;;;;6.07;5.63;;;22.40;99.90;;;;;;5046927;28;20191;-61
2023/05/21 08:28:15;;;;;;;6.73;6.33;;;22.60;99.90;;;;;;5033277;28;20615;-61
2023/05/21 08:30:42;;;;;;;6.40;5.93;;;22.70;99.90;;;;;;5030783;28;20203;-62
2023/05/21 08:33:10;;;;;;;8.00;7.40;;;22.40;99.90;;;;;;5031222;28;20276;-61
2023/05/21 08:35:37;;;;;;;7.30;6.77;;;22.10;99.90;;;;;;5042207;28;20883;-61
2023/05/21 08:38:04;;;;;;;8.77;8.07;;;21.80;99.90;;;;;;5033570;28;20722;-61
2023/05/21 08:40:31;;;;;;;8.63;7.93;;;21.70;99.90;;;;;;5033207;28;20656;-61
2023/05/21 08:42:58;;;;;;;9.20;8.40;;;21.70;99.90;;;;;;5033151;28;20304;-61
2023/05/21 08:45:26;;;;;;;10.13;7.60;;;21.60;99.90;;;;;;5033384;28;20206;-61
2023/05/21 08:47:56;;;;;;;9.93;9.23;;;21.80;99.90;;;;;;5040348;28;20206;-61
2023/05/21 08:50:27;;;;;;;9.53;8.43;;;22.00;99.90;;;;;;5033565;28;20218;-61
2023/05/21 08:52:55;;;;;;;10.63;9.73;;;22.50;99.90;;;;;;5032337;28;20311;-62
2023/05/21 08:55:22;;;;;;;10.93;9.93;;;22.60;99.90;;;;;;5032614;28;20202;-61
2023/05/21 08:57:50;;;;;;;13.17;11.97;;;22.50;99.90;;;;;;5042198;28;20230;-61
2023/05/21 09:00:19;;;;;;;13.03;11.83;;;22.40;99.90;;;;;;5052955;28;20578;-61
2023/05/21 09:02:46;;;;;;;11.40;10.50;;;22.50;99.90;;;;;;5046923;28;20229;-60
2023/05/21 09:05:15;;;;;;;13.17;11.97;;;22.40;99.90;;;;;;5044384;28;20236;-61
2023/05/21 09:07:50;;;;;;;11.10;10.20;;;22.50;99.90;;;;;;5052614;28;20202;-61
2023/05/21 09:10:20;;;;;;;14.23;13.03;;;22.60;99.90;;;;;;5033456;28;20713;-61
2023/05/21 09:12:48;;;;;;;11.17;10.27;;;22.50;99.90;;;;;;5032448;28;20281;-61
2023/05/21 09:15:15;;;;;;;11.17;10.07;;;22.30;99.90;;;;;;5041230;28;20633;-61
2023/05/21 09:17:42;;;;;;;12.50;11.40;;;22.50;99.90;;;;;;5044848;28;20252;-61
2023/05/21 09:20:12;;;;;;;14.90;13.50;;;22.70;99.90;;;;;;5025750;28;20281;-62
2023/05/21 09:22:44;;;;;;;13.70;12.40;;;22.10;99.90;;;;;;5032400;28;20594;-61
2023/05/21 09:25:12;;;;;;;10.57;9.70;;;22.30;99.90;;;;;;5032152;28;20207;-61
2023/05/21 09:27:39;;;;;;;11.43;10.43;;;22.50;99.90;;;;;;5030072;28;20202;-62
2023/05/21 09:30:13;;;;;;;14.00;12.80;;;22.70;99.90;;;;;;5042316;28;20194;-62
2023/05/21 09:32:40;;;;;;;13.53;12.10;;;22.70;99.90;;;;;;5036449;28;20277;-61
2023/05/21 09:35:09;;;;;;;11.33;10.40;;;22.50;99.90;;;;;;5031825;28;20668;-62
2023/05/21 09:37:39;;;;;;;12.37;11.27;;;22.60;99.90;;;;;;5037950;28;20642;-62
2023/05/21 09:40:15;;;;;;;12.43;11.43;;;22.70;99.90;;;;;;5034468;28;20457;-61
2023/05/21 09:42:46;;;;;;;12.03;10.93;;;22.90;99.90;;;;;;5038105;28;20572;-62
2023/05/21 09:45:17;;;;;;;12.67;11.47;;;23.30;99.90;;;;;;5033115;28;20251;-62
2023/05/21 09:47:45;;;;;;;11.13;10.00;;;22.70;99.90;;;;;;5033343;28;20248;-62
2023/05/21 09:50:13;;;;;;;10.70;9.80;;;23.00;99.90;;;;;;5035227;28;20652;-61
2023/05/21 09:52:40;;;;;;;11.37;10.00;;;23.10;99.90;;;;;;5038883;28;20218;-62
2023/05/21 09:55:10;;;;;;;9.60;8.90;;;23.30;99.90;;;;;;5042443;28;20259;-62
2023/05/21 09:57:42;;;;;;;10.40;9.50;;;23.60;99.90;;;;;;5033480;28;20660;-62
2023/05/21 10:00:17;;;;;;;12.93;11.67;;;23.60;99.90;;;;;;5040030;28;20213;-62
2023/05/21 10:02:45;;;;;;;12.03;11.03;;;23.70;99.90;;;;;;5030516;28;20246;-62
2023/05/21 10:05:13;;;;;;;10.23;9.40;;;23.80;99.90;;;;;;5030340;28;20201;-62
2023/05/21 10:07:42;;;;;;;10.60;9.73;;;24.00;99.90;;;;;;5047764;28;20202;-61
2023/05/21 10:10:13;;;;;;;12.03;11.07;;;24.00;99.90;;;;;;5042364;28;20676;-61
2023/05/21 10:12:44;;;;;;;9.17;8.57;;;24.10;99.90;;;;;;5031182;28;20261;-61
2023/05/21 10:15:16;;;;;;;9.37;8.50;;;24.40;99.90;;;;;;5031440;28;20199;-62
2023/05/21 10:17:44;;;;;;;9.47;8.77;;;24.70;99.90;;;;;;5031300;28;20207;-62
2023/05/21 10:20:12;;;;;;;9.70;8.80;;;24.90;99.90;;;;;;5037359;28;20675;-61
2023/05/21 10:22:39;;;;;;;10.70;9.90;;;25.10;99.90;;;;;;5033617;28;20223;-61
2023/05/21 10:25:08;;;;;;;10.13;9.33;;;24.70;99.90;;;;;;5028954;28;20198;-62
2023/05/21 10:27:36;;;;;;;10.73;9.83;;;24.60;99.90;;;;;;5036710;28;20202;-61
2023/05/21 10:30:05;;;;;;;10.33;9.37;;;24.60;99.90;;;;;;5031825;28;20240;-61
2023/05/21 10:32:33;;;;;;;10.13;9.27;;;24.60;99.90;;;;;;5030903;28;20576;-62
2023/05/21 10:35:01;;;;;;;9.50;8.70;;;24.80;99.90;;;;;;5032780;28;20652;-61
2023/05/21 10:37:29;;;;;;;10.30;9.30;;;24.90;99.90;;;;;;5034348;28;20284;-62
2023/05/21 10:39:56;;;;;;;8.93;8.33;;;24.80;99.90;;;;;;5039389;28;20198;-62
2023/05/21 10:42:51;;;;;;;8.80;8.10;;;25.20;99.90;;;;;;5030881;28;20308;-62
2023/05/21 10:45:31;;;;;;;8.97;8.37;;;25.30;99.90;;;;;;5031129;28;20202;-62
2023/05/21 10:48:24;;;;;;;11.23;10.23;;;25.70;99.90;;;;;;5029339;28;20594;-64
2023/05/21 10:51:19;;;;;;;9.53;8.83;;;25.70;99.90;;;;;;5028557;28;20225;-62
2023/05/21 10:54:13;;;;;;;11.37;10.33;;;25.50;99.90;;;;;;5032995;28;20597;-62
2023/05/21 10:56:45;;;;;;;9.90;9.10;;;25.50;99.90;;;;;;5037710;28;20210;-62
2023/05/21 10:59:33;;;;;;;11.03;10.17;;;25.50;99.90;;;;;;5037635;28;20197;-62
2023/05/21 11:02:03;;;;;;;12.93;11.73;;;25.30;99.90;;;;;;5044284;28;20198;-62
2023/05/21 11:04:30;;;;;;;12.07;11.00;;;25.30;99.90;;;;;;5090071;22;20232;-55
2023/05/21 11:07:02;;;;;;;13.77;10.83;;;25.50;99.90;;;;;;5075876;28;20205;-55
2023/05/21 11:09:29;;;;;;;12.67;11.57;;;25.60;99.90;;;;;;5077871;28;20250;-55
2023/05/21 11:11:58;;;;;;;12.30;11.30;;;25.90;99.90;;;;;;5078099;28;20274;-55
2023/05/21 11:14:34;;;;;;;12.27;11.17;;;26.00;99.90;;;;;;5077852;28;20229;-55
2023/05/21 11:17:12;;;;;;;11.87;10.97;;;25.50;99.90;;;;;;5068378;28;20201;-55
2023/05/21 11:19:40;;;;;;;12.93;11.73;;;25.60;99.90;;;;;;5078069;28;20205;-55
2023/05/21 11:22:20;;;;;;;12.03;11.03;;;25.60;99.90;;;;;;5077697;28;20626;-55
2023/05/21 11:24:48;;;;;;;13.90;12.70;;;25.40;99.90;;;;;;5071899;28;20220;-55
2023/05/21 11:27:31;;;;;;;14.03;12.73;;;25.20;99.90;;;;;;5077541;28;20197;-55
2023/05/21 11:29:58;;;;;;;13.73;12.63;;;25.10;99.90;;;;;;5076948;28;20664;-55
2023/05/21 11:32:26;;;;;;;14.00;12.47;;;24.90;99.90;;;;;;5076877;28;20246;-55
2023/05/21 11:34:53;;;;;;;11.90;10.90;;;24.70;99.90;;;;;;5077859;28;20221;-55
2023/05/21 11:37:28;;;;;;;13.00;12.00;;;24.70;99.90;;;;;;5077969;28;20193;-55
2023/05/21 11:39:56;;;;;;;13.40;12.30;;;24.80;99.90;;;;;;5077926;28;20204;-55
2023/05/21 11:42:32;;;;;;;11.93;11.00;;;24.90;99.90;;;;;;5077447;28;20235;-55
2023/05/21 11:44:59;;;;;;;13.03;12.03;;;25.00;99.90;;;;;;5078073;28;20284;-55
2023/05/21 11:47:29;;;;;;;13.10;12.07;;;25.10;99.90;;;;;;5068569;28;20558;-55
2023/05/21 11:49:59;;;;;;;14.23;12.97;;;25.00;99.90;;;;;;5062733;28;20224;-55
2023/05/21 11:52:26;;;;;;;14.87;13.57;;;24.70;99.90;;;;;;5057620;28;20201;-55
2023/05/21 11:54:55;;;;;;;13.53;12.20;;;24.40;99.90;;;;;;5057437;28;20222;-55
2023/05/21 11:57:25;;;;;;;11.40;10.50;;;24.10;99.90;;;;;;5057955;28;20565;-55
2023/05/21 11:59:52;;;;;;;11.53;10.43;;;24.10;99.90;;;;;;5073067;28;20201;-55
2023/05/21 12:02:21;;;;;;;12.00;10.90;;;24.00;99.90;;;;;;5071556;28;20204;-55
2023/05/21 12:04:51;;;;;;;13.17;12.03;;;24.10;99.90;;;;;;5073965;28;20221;-55
2023/05/21 12:07:19;;;;;;;11.47;10.47;;;24.30;99.90;;;;;;5074162;28;20223;-55
2023/05/21 12:09:48;;;;;;;12.60;11.60;;;24.40;99.90;;;;;;5074444;28;20205;-55
2023/05/21 12:12:16;;;;;;;12.13;11.10;;;24.60;99.90;;;;;;5073970;28;21674;-55
2023/05/21 12:14:45;;;;;;;10.40;9.67;;;24.70;99.90;;;;;;5074030;28;20217;-55
2023/05/21 12:17:13;;;;;;;9.87;9.10;;;24.40;99.90;;;;;;5065000;28;20201;-55
2023/05/21 12:19:40;;;;;;;9.70;8.87;;;24.40;99.90;;;;;;5063493;28;20206;-55
2023/05/21 12:22:10;;;;;;;11.13;10.20;;;24.50;99.90;;;;;;5065424;28;20731;-55
2023/05/21 12:24:38;;;;;;;8.30;7.80;;;24.70;99.90;;;;;;5074061;28;20275;-55
2023/05/21 12:27:08;;;;;;;9.63;8.87;;;24.60;99.90;;;;;;5073728;28;20205;-55
2023/05/21 12:29:36;;;;;;;9.50;8.73;;;24.60;99.90;;;;;;5073989;28;20212;-55
2023/05/21 12:32:07;;;;;;;9.23;8.57;;;24.70;99.90;;;;;;5070600;28;20548;-55
2023/05/21 12:34:38;;;;;;;8.47;7.67;;;24.50;99.90;;;;;;5069384;28;20225;-55
2023/05/21 12:37:06;;;;;;;8.47;7.80;;;24.60;99.90;;;;;;5073964;28;20193;-55
2023/05/21 12:39:37;;;;;;;7.73;7.03;;;24.70;99.90;;;;;;5073820;28;20197;-55
2023/05/21 12:42:05;;;;;;;7.47;6.97;;;24.80;99.90;;;;;;5073642;28;20266;-55
2023/05/21 12:44:32;;;;;;;9.80;8.83;;;24.80;99.90;;;;;;5073631;28;20217;-54
2023/05/21 12:46:59;;;;;;;8.53;7.83;;;24.60;99.90;;;;;;5073823;28;20200;-55
2023/05/21 12:49:37;;;;;;;6.63;6.30;;;24.70;99.90;;;;;;5070442;28;20693;-55